Time;durP1;ratioP1;P1;durP2;ratioP2;P2;SDS_P1;SDS_P2;PMS_P1;PMS_P2;Temp;Humidity;BMP_temperature;BMP_pressure;BME280_temperature;BME280_humidity;BME280_pressure;Samples;Min_cycle;Max_cycle;Signal;HPM_P1;HPM_P2
2022/03/18 00:00:54;;;;;;;19.02;5.50;;;3.30;99.90;;;;;;5145078;27;20427;-85
2022/03/18 00:03:20;;;;;;;18.38;5.90;;;3.30;99.90;;;;;;5124521;27;20502;-84
2022/03/18 00:05:46;;;;;;;17.02;5.88;;;3.30;99.90;;;;;;5125266;27;20361;-85
2022/03/18 00:08:11;;;;;;;20.08;6.13;;;3.30;99.90;;;;;;5151666;27;20555;-85
2022/03/18 00:10:37;;;;;;;19.65;5.90;;;3.30;99.90;;;;;;5143196;27;20034;-85
2022/03/18 00:13:03;;;;;;;20.73;5.50;;;3.30;99.90;;;;;;5155560;27;20047;-85
2022/03/18 00:15:29;;;;;;;16.95;4.85;;;3.30;99.90;;;;;;5138163;27;20064;-84
2022/03/18 00:17:55;;;;;;;15.85;5.05;;;3.30;99.90;;;;;;5122856;27;20051;-85
2022/03/18 00:20:23;;;;;;;18.15;5.70;;;3.30;99.90;;;;;;5141492;27;20125;-85
2022/03/18 00:22:52;;;;;;;21.48;5.68;;;3.30;99.90;;;;;;5118776;27;20050;-85
2022/03/18 00:25:19;;;;;;;17.58;5.57;;;3.30;99.90;;;;;;5112170;27;20055;-85
2022/03/18 00:27:46;;;;;;;20.33;5.63;;;3.30;99.90;;;;;;5138259;27;20042;-84
2022/03/18 00:30:14;;;;;;;17.75;5.45;;;3.30;99.90;;;;;;5140659;27;20085;-85
2022/03/18 00:32:41;;;;;;;18.00;6.05;;;3.30;99.90;;;;;;5140223;27;20102;-85
2022/03/18 00:35:08;;;;;;;20.13;6.38;;;3.30;99.90;;;;;;5107777;27;20122;-85
2022/03/18 00:37:38;;;;;;;16.45;5.45;;;3.30;99.90;;;;;;5126244;27;20053;-84
2022/03/18 00:40:05;;;;;;;19.75;6.57;;;3.30;99.90;;;;;;5087124;27;20127;-85
2022/03/18 00:42:31;;;;;;;24.52;6.22;;;3.30;99.90;;;;;;5127161;27;20045;-85
2022/03/18 00:45:01;;;;;;;16.52;6.18;;;3.30;99.90;;;;;;5128024;27;20034;-85
2022/03/18 00:52:56;;;;;;;18.27;6.50;;;3.30;99.90;;;;;;5124372;27;20055;-85
2022/03/18 00:55:22;;;;;;;22.38;6.25;;;3.20;99.90;;;;;;5143486;27;20051;-85
2022/03/18 00:57:48;;;;;;;25.65;6.40;;;3.20;99.90;;;;;;5126840;27;20435;-85
2022/03/18 01:00:15;;;;;;;20.50;6.07;;;3.20;99.90;;;;;;5116988;27;20043;-85
2022/03/18 01:02:40;;;;;;;18.33;6.18;;;3.20;99.90;;;;;;5118146;27;20184;-84
2022/03/18 01:05:07;;;;;;;15.23;6.22;;;3.20;99.90;;;;;;5126880;27;20147;-84
2022/03/18 01:07:32;;;;;;;21.20;6.18;;;3.20;99.90;;;;;;5138963;27;20053;-85
2022/03/18 01:09:58;;;;;;;20.60;5.85;;;3.10;99.90;;;;;;5120926;27;20035;-85
2022/03/18 01:12:24;;;;;;;16.73;6.50;;;3.10;99.90;;;;;;5104698;27;20497;-85
2022/03/18 01:14:50;;;;;;;14.68;5.45;;;3.10;99.90;;;;;;5124754;27;20034;-85
2022/03/18 01:17:16;;;;;;;19.98;5.75;;;3.10;99.90;;;;;;5129009;27;20468;-85
2022/03/18 01:19:42;;;;;;;21.52;6.22;;;3.10;99.90;;;;;;5086210;27;20047;-85
2022/03/18 01:22:10;;;;;;;18.25;6.15;;;3.10;99.90;;;;;;5102403;27;20526;-85
2022/03/18 01:24:39;;;;;;;14.75;5.30;;;3.00;99.90;;;;;;5123306;27;20534;-85
2022/03/18 01:27:05;;;;;;;16.63;6.10;;;3.00;99.90;;;;;;5124267;27;20046;-85
2022/03/18 01:29:32;;;;;;;15.85;5.55;;;3.10;99.90;;;;;;5082348;27;20043;-85
2022/03/18 01:31:58;;;;;;;15.95;5.72;;;3.00;99.90;;;;;;5088102;27;20037;-85
2022/03/18 01:34:23;;;;;;;17.40;6.35;;;3.00;99.90;;;;;;5101830;27;20800;-85
2022/03/18 01:36:49;;;;;;;22.20;7.03;;;3.00;99.90;;;;;;5119853;27;20043;-85
2022/03/18 01:39:16;;;;;;;18.67;5.85;;;2.90;99.90;;;;;;5106162;27;20104;-85
2022/03/18 01:41:42;;;;;;;19.38;6.50;;;3.00;99.90;;;;;;5101263;27;20047;-85
2022/03/18 01:44:12;;;;;;;13.55;5.68;;;3.00;99.90;;;;;;5121048;27;20522;-85
2022/03/18 01:46:38;;;;;;;18.40;7.50;;;3.00;99.90;;;;;;5124622;27;20035;-85
2022/03/18 01:49:07;;;;;;;17.60;7.03;;;3.00;99.90;;;;;;5105086;27;20069;-86
2022/03/18 01:51:36;;;;;;;17.63;6.43;;;3.00;99.90;;;;;;5127318;27;20039;-86
2022/03/18 01:56:48;;;;;;;21.42;6.65;;;3.00;99.90;;;;;;5103979;27;20084;-85
2022/03/18 01:59:15;;;;;;;15.52;6.53;;;2.90;99.90;;;;;;5113269;27;20528;-86
2022/03/18 02:01:40;;;;;;;18.20;7.32;;;2.90;99.90;;;;;;5103988;27;20547;-85
2022/03/18 02:04:06;;;;;;;20.83;6.95;;;2.90;99.90;;;;;;5124571;27;20118;-85
2022/03/18 02:06:32;;;;;;;17.23;7.20;;;2.90;99.90;;;;;;5106724;28;20043;-85
2022/03/18 02:08:58;;;;;;;23.15;6.65;;;2.90;99.90;;;;;;5089020;27;20511;-85
2022/03/18 02:11:25;;;;;;;17.20;6.45;;;2.90;99.90;;;;;;5123831;27;20039;-85
2022/03/18 02:13:56;;;;;;;17.38;7.45;;;2.90;99.90;;;;;;5130534;27;20035;-85
2022/03/18 02:16:21;;;;;;;21.10;7.40;;;2.90;99.90;;;;;;5106177;27;20055;-85
2022/03/18 02:18:47;;;;;;;20.90;7.45;;;2.80;99.90;;;;;;5106787;27;21435;-85
2022/03/18 02:21:14;;;;;;;17.70;6.63;;;2.80;99.90;;;;;;5104118;28;20135;-85
2022/03/18 02:23:41;;;;;;;20.67;7.18;;;2.80;99.90;;;;;;5107927;27;20039;-85
2022/03/18 02:26:07;;;;;;;19.65;7.32;;;2.80;99.90;;;;;;5107502;27;20118;-85
2022/03/18 02:28:32;;;;;;;18.73;6.82;;;2.80;99.90;;;;;;5087013;27;20051;-85
2022/03/18 02:31:01;;;;;;;17.00;7.05;;;2.80;99.90;;;;;;5094049;27;20038;-85
2022/03/18 02:33:26;;;;;;;17.55;7.13;;;2.90;99.90;;;;;;5094750;27;20627;-85
2022/03/18 02:35:55;;;;;;;16.90;6.10;;;2.80;99.90;;;;;;5088697;27;20492;-85
2022/03/18 02:38:21;;;;;;;18.60;7.90;;;2.90;99.90;;;;;;5106330;28;20057;-85
2022/03/18 02:40:46;;;;;;;14.93;6.28;;;2.80;99.90;;;;;;5105885;27;20039;-85
2022/03/18 02:43:12;;;;;;;15.93;6.15;;;2.80;99.90;;;;;;5106975;28;20156;-85
2022/03/18 02:45:37;;;;;;;18.48;6.72;;;2.90;99.90;;;;;;5121369;27;20047;-85
2022/03/18 02:48:04;;;;;;;17.58;6.60;;;2.90;99.90;;;;;;5122136;27;20039;-84
2022/03/18 02:50:30;;;;;;;21.02;7.00;;;2.80;99.90;;;;;;5125270;27;20500;-85
2022/03/18 02:52:56;;;;;;;17.92;6.63;;;2.90;99.90;;;;;;5123280;27;20046;-85
2022/03/18 02:55:21;;;;;;;17.40;5.93;;;2.90;99.90;;;;;;5122764;27;20035;-84
2022/03/18 02:57:47;;;;;;;19.88;6.28;;;2.90;99.90;;;;;;5127451;27;20035;-85
2022/03/18 03:00:13;;;;;;;19.10;7.32;;;2.90;99.90;;;;;;5108188;28;20657;-85
2022/03/18 03:02:39;;;;;;;19.25;6.88;;;2.90;99.90;;;;;;5124428;27;20485;-85
2022/03/18 03:07:59;;;;;;;22.98;6.70;;;2.90;99.90;;;;;;5121204;27;20051;-85
2022/03/18 03:10:39;;;;;;;17.60;6.50;;;2.80;99.90;;;;;;5114486;28;20047;-85
2022/03/18 03:13:10;;;;;;;19.63;7.50;;;2.80;99.90;;;;;;5123134;27;20043;-85
2022/03/18 03:15:37;;;;;;;15.32;7.13;;;2.80;99.90;;;;;;5112501;28;20517;-85
2022/03/18 03:18:03;;;;;;;17.02;7.18;;;2.90;99.90;;;;;;5121524;27;20059;-86
2022/03/18 03:20:29;;;;;;;20.40;6.82;;;3.00;99.90;;;;;;5128997;27;20043;-85
2022/03/18 03:22:55;;;;;;;20.90;6.85;;;2.80;99.90;;;;;;5132522;27;20046;-84
2022/03/18 03:25:20;;;;;;;21.23;7.47;;;2.80;99.90;;;;;;5109714;27;20035;-85
2022/03/18 03:27:46;;;;;;;19.95;6.60;;;2.80;99.90;;;;;;5124836;27;20031;-85
2022/03/18 03:30:12;;;;;;;16.70;6.50;;;2.80;99.90;;;;;;5109545;27;20133;-85
2022/03/18 03:32:38;;;;;;;18.00;7.05;;;2.80;99.90;;;;;;5128652;27;20121;-85
2022/03/18 03:35:06;;;;;;;18.58;5.90;;;2.80;99.90;;;;;;5130621;27;20159;-85
2022/03/18 03:37:32;;;;;;;16.23;6.47;;;2.80;99.90;;;;;;5123185;27;20054;-85
2022/03/18 03:39:57;;;;;;;18.25;7.70;;;2.80;99.90;;;;;;5114442;27;20035;-85
2022/03/18 03:42:23;;;;;;;15.15;6.38;;;2.80;99.90;;;;;;5100910;27;20337;-85
2022/03/18 03:44:49;;;;;;;19.60;6.28;;;2.80;99.90;;;;;;5111583;27;20038;-85
2022/03/18 03:47:15;;;;;;;19.20;7.03;;;2.90;99.90;;;;;;5129430;27;20470;-85
2022/03/18 03:49:41;;;;;;;15.05;6.65;;;2.90;99.90;;;;;;5130453;27;20051;-85
2022/03/18 03:52:09;;;;;;;15.35;6.63;;;2.90;99.90;;;;;;5108591;27;20061;-85
2022/03/18 03:54:37;;;;;;;17.52;6.93;;;2.90;99.90;;;;;;5120298;27;20049;-85
2022/03/18 03:57:06;;;;;;;15.98;7.28;;;3.00;99.90;;;;;;5100840;27;20031;-84
2022/03/18 03:59:32;;;;;;;15.23;6.82;;;3.00;99.90;;;;;;5107174;27;20067;-84
2022/03/18 04:01:58;;;;;;;22.60;8.60;;;3.00;99.90;;;;;;5088830;27;20499;-84
2022/03/18 04:04:27;;;;;;;17.92;7.65;;;3.10;99.90;;;;;;5104096;27;20114;-85
2022/03/18 04:06:54;;;;;;;17.02;7.55;;;3.10;99.90;;;;;;5132879;27;20043;-84
2022/03/18 04:09:19;;;;;;;15.68;7.22;;;3.20;99.90;;;;;;5113551;27;20053;-84
2022/03/18 04:11:46;;;;;;;19.52;7.97;;;3.20;99.90;;;;;;5114540;27;20065;-84
2022/03/18 04:14:11;;;;;;;18.85;7.63;;;3.20;99.90;;;;;;5127537;27;20130;-84
2022/03/18 04:16:37;;;;;;;24.13;8.32;;;3.30;99.90;;;;;;5123745;27;20118;-84
2022/03/18 04:19:05;;;;;;;17.27;7.45;;;3.30;99.90;;;;;;5131754;27;20718;-83
2022/03/18 04:21:31;;;;;;;20.30;8.02;;;3.30;99.90;;;;;;5101152;27;20040;-84
2022/03/18 04:23:57;;;;;;;16.05;7.32;;;3.40;99.90;;;;;;5111595;27;20047;-84
2022/03/18 04:26:22;;;;;;;20.63;8.27;;;3.50;99.90;;;;;;5114990;27;20069;-84
2022/03/18 04:28:48;;;;;;;21.45;8.20;;;3.50;99.90;;;;;;5121106;27;20152;-84
2022/03/18 04:31:13;;;;;;;15.05;7.38;;;3.60;99.90;;;;;;5114358;27;20129;-84
2022/03/18 04:33:39;;;;;;;17.45;8.10;;;3.60;99.90;;;;;;5119735;27;20486;-84
2022/03/18 04:36:05;;;;;;;18.60;7.85;;;3.60;99.90;;;;;;5145402;27;20491;-84
2022/03/18 04:38:31;;;;;;;17.98;7.40;;;3.60;99.90;;;;;;5110488;27;20061;-84
2022/03/18 04:40:56;;;;;;;20.17;8.15;;;3.70;99.90;;;;;;5132404;27;20034;-84
2022/03/18 04:43:22;;;;;;;19.38;8.32;;;3.70;99.90;;;;;;5114671;27;20039;-84
2022/03/18 04:45:48;;;;;;;15.00;8.00;;;3.70;99.90;;;;;;5132398;27;20074;-85
2022/03/18 04:48:13;;;;;;;18.30;8.23;;;3.70;99.90;;;;;;5091657;27;20064;-84
2022/03/18 04:50:39;;;;;;;18.48;7.25;;;3.70;99.90;;;;;;5117888;27;20034;-84
2022/03/18 04:53:05;;;;;;;20.27;7.38;;;3.80;99.90;;;;;;5115799;27;20051;-84
2022/03/18 04:55:30;;;;;;;20.38;7.95;;;3.70;99.90;;;;;;5134752;27;20039;-84
2022/03/18 04:57:56;;;;;;;19.05;7.35;;;3.70;99.90;;;;;;5113157;27;20035;-84
2022/03/18 05:00:24;;;;;;;18.98;7.22;;;3.70;99.90;;;;;;5112814;27;20048;-84
2022/03/18 05:02:55;;;;;;;14.27;6.63;;;3.60;99.90;;;;;;5096543;27;20385;-84
2022/03/18 05:05:21;;;;;;;16.73;7.28;;;3.60;99.90;;;;;;5119063;27;20043;-84
2022/03/18 05:07:51;;;;;;;14.63;7.25;;;3.60;99.90;;;;;;5103341;27;20558;-84
2022/03/18 05:10:18;;;;;;;18.25;7.80;;;3.60;99.90;;;;;;5091803;27;20385;-84
2022/03/18 05:12:45;;;;;;;20.83;7.43;;;3.50;99.90;;;;;;5124860;27;20051;-84
2022/03/18 05:15:11;;;;;;;14.73;6.80;;;3.50;99.90;;;;;;5108414;27;20796;-84
2022/03/18 05:17:39;;;;;;;14.23;6.82;;;3.40;99.90;;;;;;5096446;27;20507;-84
2022/03/18 05:20:06;;;;;;;17.25;7.28;;;3.40;99.90;;;;;;5119957;27;20155;-84
2022/03/18 05:22:32;;;;;;;14.35;7.10;;;3.40;99.90;;;;;;5136078;27;20035;-84
2022/03/18 05:24:59;;;;;;;17.50;7.07;;;3.30;99.90;;;;;;5114978;27;20038;-85
2022/03/18 05:27:25;;;;;;;17.55;7.07;;;3.30;99.90;;;;;;5102147;27;20772;-84
2022/03/18 05:29:51;;;;;;;13.10;6.88;;;3.30;99.90;;;;;;5135547;27;20492;-84
2022/03/18 05:32:18;;;;;;;15.30;6.93;;;3.20;99.90;;;;;;5122456;27;20050;-84
2022/03/18 05:34:43;;;;;;;10.63;5.97;;;3.20;99.90;;;;;;5097999;27;20050;-84
2022/03/18 05:37:10;;;;;;;18.63;7.53;;;3.10;99.90;;;;;;5118923;27;20380;-84
2022/03/18 05:39:37;;;;;;;15.40;7.43;;;3.10;99.90;;;;;;5106023;27;20091;-84
2022/03/18 05:42:04;;;;;;;12.70;6.75;;;3.10;99.90;;;;;;5111958;27;20038;-87
2022/03/18 05:44:30;;;;;;;15.93;6.72;;;3.00;99.90;;;;;;5119244;27;20048;-84
2022/03/18 05:46:56;;;;;;;14.40;6.45;;;3.00;99.90;;;;;;5115019;27;20118;-84
2022/03/18 05:49:22;;;;;;;14.23;7.20;;;3.00;99.90;;;;;;5120920;27;20117;-84
2022/03/18 05:51:48;;;;;;;14.50;7.15;;;3.00;99.90;;;;;;5136344;27;20027;-84
2022/03/18 05:54:14;;;;;;;17.65;7.60;;;3.00;99.90;;;;;;5129132;27;20080;-84
2022/03/18 05:56:52;;;;;;;16.63;8.15;;;3.00;99.90;;;;;;5104094;27;20553;-85
2022/03/18 05:59:37;;;;;;;11.80;6.93;;;3.00;99.90;;;;;;5139622;27;20248;-84
2022/03/18 06:02:03;;;;;;;18.35;7.55;;;3.00;99.90;;;;;;5141113;27;20121;-84
2022/03/18 06:04:31;;;;;;;14.70;7.13;;;3.00;99.90;;;;;;5116886;27;20488;-84
2022/03/18 06:06:57;;;;;;;16.90;7.70;;;3.00;99.90;;;;;;5119418;27;20047;-84
2022/03/18 06:12:08;;;;;;;13.52;7.15;;;3.10;99.90;;;;;;5105187;27;20047;-84
2022/03/18 06:14:34;;;;;;;16.83;7.35;;;3.20;99.90;;;;;;5135839;27;20046;-84
2022/03/18 06:17:02;;;;;;;18.40;8.20;;;3.50;99.90;;;;;;5128679;27;20504;-84
2022/03/18 06:19:29;;;;;;;18.50;7.50;;;4.10;99.90;;;;;;5113754;27;20708;-84
2022/03/18 06:21:56;;;;;;;17.10;7.10;;;4.30;99.90;;;;;;5134946;27;20155;-83
2022/03/18 06:24:22;;;;;;;16.30;7.10;;;4.70;99.90;;;;;;5102856;27;20076;-84
2022/03/18 06:26:54;;;;;;;12.77;6.38;;;5.10;99.90;;;;;;5130844;27;20403;-84
2022/03/18 06:29:21;;;;;;;16.45;6.47;;;5.90;99.90;;;;;;5094697;27;21880;-84
2022/03/18 06:31:47;;;;;;;14.35;5.70;;;6.70;99.90;;;;;;5116273;27;20314;-84
2022/03/18 06:34:13;;;;;;;15.93;5.80;;;7.30;99.90;;;;;;5136851;27;20034;-85
2022/03/18 06:36:39;;;;;;;13.57;6.35;;;8.00;99.90;;;;;;5128583;27;20047;-85
2022/03/18 06:39:06;;;;;;;12.45;5.85;;;8.40;99.90;;;;;;5120347;27;20084;-85
2022/03/18 06:41:31;;;;;;;15.57;6.93;;;8.90;99.90;;;;;;5123334;27;20039;-85
2022/03/18 06:43:57;;;;;;;14.23;6.03;;;9.50;99.90;;;;;;5130509;27;20027;-85
2022/03/18 06:46:24;;;;;;;14.18;6.28;;;10.10;99.90;;;;;;5120202;28;20046;-84
2022/03/18 06:48:50;;;;;;;17.60;7.00;;;10.10;99.90;;;;;;5094270;27;20080;-84
2022/03/18 06:51:16;;;;;;;13.68;5.90;;;10.30;99.90;;;;;;5125661;27;20125;-84
2022/03/18 06:53:42;;;;;;;12.60;6.10;;;10.00;99.90;;;;;;5128891;27;20039;-84
2022/03/18 06:56:08;;;;;;;15.68;6.03;;;9.70;99.90;;;;;;5108166;27;20054;-85
2022/03/18 06:58:35;;;;;;;14.45;6.35;;;9.30;99.90;;;;;;5102601;27;20045;-85
2022/03/18 07:01:01;;;;;;;16.10;6.40;;;8.90;99.90;;;;;;5114307;27;20050;-85
2022/03/18 07:03:27;;;;;;;13.13;6.43;;;8.60;99.90;;;;;;5098070;27;20459;-85
2022/03/18 07:05:54;;;;;;;17.05;7.00;;;8.30;99.90;;;;;;5118034;27;20043;-86
2022/03/18 07:08:20;;;;;;;15.65;7.28;;;8.10;99.90;;;;;;5100501;27;20047;-85
2022/03/18 07:10:46;;;;;;;13.50;6.75;;;8.10;99.90;;;;;;5094511;27;20061;-85
2022/03/18 07:13:11;;;;;;;14.85;6.82;;;9.30;99.90;;;;;;5131127;27;20042;-86
2022/03/18 07:15:37;;;;;;;18.70;7.18;;;10.70;99.90;;;;;;5135614;27;20034;-85
2022/03/18 07:18:06;;;;;;;13.52;6.75;;;11.40;99.90;;;;;;5127825;27;20048;-85
2022/03/18 07:20:41;;;;;;;12.68;6.75;;;12.00;99.90;;;;;;5119091;27;20533;-85
2022/03/18 07:23:10;;;;;;;17.70;6.72;;;13.20;99.90;;;;;;5130965;27;20038;-86
2022/03/18 07:25:44;;;;;;;14.25;5.65;;;14.20;99.90;;;;;;5104827;27;20051;-86
2022/03/18 07:28:12;;;;;;;17.75;6.22;;;15.20;99.90;;;;;;5095629;27;20384;-86
2022/03/18 07:30:41;;;;;;;14.65;5.65;;;15.60;99.90;;;;;;5119584;27;20122;-85
2022/03/18 07:33:07;;;;;;;11.45;5.80;;;15.70;99.90;;;;;;5119216;27;20074;-84
2022/03/18 07:35:36;;;;;;;16.98;5.80;;;16.30;99.90;;;;;;5130246;27;20887;-85
2022/03/18 07:38:05;;;;;;;13.38;5.65;;;17.00;99.90;;;;;;5102707;27;20128;-86
2022/03/18 07:40:31;;;;;;;15.27;6.00;;;17.60;99.90;;;;;;5115162;27;20114;-85
2022/03/18 07:42:58;;;;;;;14.43;5.53;;;18.20;99.90;;;;;;5113921;27;20502;-84
2022/03/18 07:45:29;;;;;;;14.25;5.75;;;18.60;99.90;;;;;;5141307;27;20577;-85
2022/03/18 07:47:56;;;;;;;17.23;6.38;;;18.80;99.90;;;;;;5096161;27;20932;-84
2022/03/18 07:50:24;;;;;;;14.40;6.47;;;18.80;99.90;;;;;;5123694;27;20051;-85
2022/03/18 07:52:58;;;;;;;16.73;5.63;;;17.60;99.90;;;;;;5089779;27;20059;-85
2022/03/18 07:55:26;;;;;;;15.02;6.00;;;16.20;99.90;;;;;;5115062;27;20715;-85
2022/03/18 07:57:56;;;;;;;20.00;6.20;;;15.30;99.90;;;;;;5116987;27;20043;-84
2022/03/18 08:00:21;;;;;;;18.10;5.88;;;14.30;99.90;;;;;;5112066;27;20054;-84
2022/03/18 08:02:49;;;;;;;20.30;7.68;;;14.40;99.90;;;;;;5131933;27;20051;-84
2022/03/18 08:05:16;;;;;;;19.30;7.70;;;13.10;99.90;;;;;;5134092;27;20246;-85
2022/03/18 08:07:42;;;;;;;13.70;6.25;;;12.60;99.90;;;;;;5123680;27;20666;-84
2022/03/18 08:10:09;;;;;;;16.95;8.43;;;12.30;99.90;;;;;;5107553;27;20369;-82
2022/03/18 08:12:37;;;;;;;19.58;8.13;;;12.20;99.90;;;;;;5128952;27;20125;-85
2022/03/18 08:15:09;;;;;;;15.82;7.78;;;12.10;99.90;;;;;;5122884;27;20142;-84
2022/03/18 08:17:36;;;;;;;20.70;7.57;;;12.10;99.90;;;;;;5120477;27;20535;-84
2022/03/18 08:20:02;;;;;;;22.55;8.30;;;12.10;99.90;;;;;;5142089;27;20095;-84
2022/03/18 08:22:27;;;;;;;18.67;7.97;;;12.00;99.90;;;;;;5136973;27;20102;-84
2022/03/18 08:24:53;;;;;;;19.80;7.60;;;12.00;99.90;;;;;;5134310;27;20258;-85
2022/03/18 08:27:19;;;;;;;19.27;6.38;;;12.00;99.90;;;;;;5134684;27;20511;-85
2022/03/18 08:29:46;;;;;;;16.65;6.38;;;12.10;99.90;;;;;;5118732;27;20050;-85
2022/03/18 08:32:14;;;;;;;23.95;7.00;;;12.00;99.90;;;;;;5133537;27;20053;-85
2022/03/18 08:34:40;;;;;;;19.35;6.70;;;11.90;99.90;;;;;;5087903;27;20062;-85
2022/03/18 08:37:06;;;;;;;21.45;6.60;;;11.80;99.90;;;;;;5074772;27;20044;-85
2022/03/18 08:39:33;;;;;;;19.63;7.32;;;11.90;99.90;;;;;;5091032;27;20050;-85
2022/03/18 08:41:59;;;;;;;20.95;6.43;;;12.00;99.90;;;;;;5103731;27;20035;-85
2022/03/18 08:44:25;;;;;;;18.45;6.32;;;11.90;99.90;;;;;;5097700;27;20499;-84
2022/03/18 08:46:51;;;;;;;17.38;6.97;;;11.90;99.90;;;;;;5136020;27;20031;-86
2022/03/18 08:49:16;;;;;;;24.67;6.80;;;12.00;99.90;;;;;;5117292;27;20134;-84
2022/03/18 08:51:42;;;;;;;22.40;7.28;;;12.10;99.90;;;;;;5114662;27;20040;-85
2022/03/18 08:54:08;;;;;;;21.58;7.43;;;12.20;99.90;;;;;;5121061;27;20144;-86
2022/03/18 08:56:35;;;;;;;16.75;6.63;;;12.20;99.90;;;;;;5126194;27;20043;-85
2022/03/18 08:59:06;;;;;;;25.10;7.20;;;12.20;99.90;;;;;;5111879;27;20113;-86
2022/03/18 09:01:34;;;;;;;17.35;6.90;;;12.30;99.90;;;;;;5123097;27;20050;-82
2022/03/18 09:04:00;;;;;;;20.08;6.93;;;12.40;99.90;;;;;;5100673;27;20114;-83
2022/03/18 09:06:26;;;;;;;23.38;7.05;;;12.60;99.90;;;;;;5108428;27;21719;-82
2022/03/18 09:08:51;;;;;;;18.92;6.57;;;12.80;99.90;;;;;;5086757;27;20047;-82
2022/03/18 09:11:20;;;;;;;23.30;6.38;;;12.80;99.90;;;;;;5083964;27;20327;-82
2022/03/18 09:13:45;;;;;;;25.63;7.53;;;12.80;99.90;;;;;;5108420;27;20038;-82
2022/03/18 09:16:12;;;;;;;19.05;6.25;;;12.80;99.90;;;;;;5106464;27;20051;-82
2022/03/18 09:18:38;;;;;;;19.15;6.45;;;12.70;99.90;;;;;;5111034;27;20510;-84
2022/03/18 09:21:04;;;;;;;19.02;6.63;;;12.90;99.90;;;;;;5098584;27;20036;-86
2022/03/18 09:23:30;;;;;;;16.55;5.63;;;12.80;99.90;;;;;;5115646;27;20043;-85
2022/03/18 09:25:56;;;;;;;22.63;6.90;;;12.80;99.90;;;;;;5104217;27;20608;-86
2022/03/18 09:28:23;;;;;;;19.65;6.38;;;12.90;99.90;;;;;;5092683;27;20051;-84
2022/03/18 09:30:49;;;;;;;25.73;7.57;;;13.00;99.90;;;;;;5127708;27;20171;-85
2022/03/18 09:33:15;;;;;;;19.80;6.47;;;13.10;99.90;;;;;;5095607;27;21197;-85
2022/03/18 09:35:43;;;;;;;21.83;7.13;;;13.10;99.90;;;;;;5110038;27;20071;-84
2022/03/18 09:38:09;;;;;;;21.70;7.07;;;13.00;99.90;;;;;;5130615;27;20148;-84
2022/03/18 09:40:35;;;;;;;19.17;6.93;;;13.00;99.90;;;;;;5125164;27;20076;-83
2022/03/18 09:43:06;;;;;;;24.90;6.90;;;13.00;99.90;;;;;;5117167;27;20105;-85
2022/03/18 09:45:35;;;;;;;22.48;7.43;;;12.90;99.90;;;;;;5108968;27;20095;-87
2022/03/18 09:48:03;;;;;;;18.00;7.05;;;12.90;99.90;;;;;;5132037;27;20039;-84
2022/03/18 09:50:30;;;;;;;19.65;7.15;;;12.90;99.90;;;;;;5117117;27;20046;-88
2022/03/18 09:52:56;;;;;;;24.05;7.47;;;12.90;99.90;;;;;;5120911;27;20058;-86
2022/03/18 09:55:25;;;;;;;22.10;7.90;;;12.90;99.90;;;;;;5135662;27;20035;-87
2022/03/18 09:57:52;;;;;;;25.52;7.88;;;13.00;99.90;;;;;;5093397;27;20103;-86
2022/03/18 10:00:18;;;;;;;25.38;7.47;;;13.10;99.90;;;;;;5108476;27;20046;-85
2022/03/18 10:02:44;;;;;;;27.08;7.10;;;13.30;99.90;;;;;;5097968;27;20111;-85
2022/03/18 10:05:13;;;;;;;27.13;6.90;;;13.40;99.90;;;;;;5099431;27;20466;-85
2022/03/18 10:07:40;;;;;;;21.38;6.57;;;13.40;99.90;;;;;;5115055;27;20039;-84
2022/03/18 10:10:14;;;;;;;25.35;7.00;;;13.30;99.90;;;;;;5108720;27;20066;-83
2022/03/18 10:12:45;;;;;;;26.30;6.50;;;13.20;99.90;;;;;;5110871;27;20043;-83
2022/03/18 10:15:17;;;;;;;26.13;6.65;;;13.20;99.90;;;;;;5114729;27;21068;-84
2022/03/18 10:17:50;;;;;;;22.85;7.03;;;13.20;99.90;;;;;;5098321;27;20051;-83
2022/03/18 10:20:23;;;;;;;16.00;5.65;;;13.20;99.90;;;;;;5108006;27;20524;-81
2022/03/18 10:22:50;;;;;;;21.63;7.03;;;13.20;99.90;;;;;;5116987;27;20039;-84
2022/03/18 10:25:37;;;;;;;20.55;7.05;;;13.10;99.90;;;;;;5098077;27;20035;-84
2022/03/18 10:28:07;;;;;;;23.23;7.95;;;13.40;99.90;;;;;;5127666;27;20057;-83
2022/03/18 10:30:33;;;;;;;22.30;6.78;;;13.10;99.90;;;;;;5137619;27;20046;-84
2022/03/18 10:32:59;;;;;;;16.58;5.95;;;13.20;99.90;;;;;;5103965;27;20139;-84
2022/03/18 10:38:30;;;;;;;20.63;6.45;;;13.20;99.90;;;;;;5122060;27;20500;-84
2022/03/18 10:40:58;;;;;;;24.58;7.13;;;13.30;99.90;;;;;;5098977;27;20047;-84
2022/03/18 10:43:24;;;;;;;29.90;8.02;;;13.10;99.90;;;;;;5129288;27;20150;-83
2022/03/18 10:46:06;;;;;;;20.33;7.13;;;13.20;99.90;;;;;;5132994;27;20038;-84
2022/03/18 10:48:32;;;;;;;23.75;6.47;;;13.10;99.90;;;;;;5136128;27;20062;-83
2022/03/18 10:51:21;;;;;;;19.10;6.32;;;13.10;99.90;;;;;;5144351;27;20046;-84
2022/03/18 10:53:55;;;;;;;18.65;6.38;;;13.10;99.90;;;;;;5093410;27;20411;-83
2022/03/18 10:56:21;;;;;;;22.40;6.70;;;13.10;99.90;;;;;;5111022;27;20047;-85
2022/03/18 10:58:46;;;;;;;16.95;6.28;;;13.10;99.90;;;;;;5135350;27;20038;-84
2022/03/18 11:01:14;;;;;;;23.95;6.22;;;13.10;99.90;;;;;;5120042;27;20039;-84
2022/03/18 11:03:41;;;;;;;20.42;6.40;;;13.20;99.90;;;;;;5126726;27;20122;-84
2022/03/18 11:06:07;;;;;;;20.85;6.93;;;13.30;99.90;;;;;;5107110;27;20058;-83
2022/03/18 11:08:38;;;;;;;21.48;7.65;;;13.30;99.90;;;;;;5090622;27;20276;-84
2022/03/18 11:11:11;;;;;;;;;;;13.30;99.90;;;;;;5112323;27;20537;-84
2022/03/18 11:13:46;;;;;;;16.00;5.88;;;13.20;99.90;;;;;;5121690;27;19972;-84
2022/03/18 11:16:12;;;;;;;20.67;6.15;;;13.40;99.90;;;;;;5137075;27;20047;-84
2022/03/18 11:18:39;;;;;;;18.52;5.38;;;13.40;99.90;;;;;;5106603;27;20108;-84
2022/03/18 11:21:07;;;;;;;17.58;4.97;;;13.40;99.90;;;;;;5138302;27;20051;-84
2022/03/18 11:23:34;;;;;;;17.20;5.15;;;13.60;99.90;;;;;;5130936;27;20042;-83
2022/03/18 11:26:01;;;;;;;22.10;5.28;;;13.60;99.90;;;;;;5116396;27;20035;-84
2022/03/18 11:28:27;;;;;;;17.75;6.18;;;13.70;99.90;;;;;;5094269;27;20079;-83
2022/03/18 11:31:09;;;;;;;23.52;6.25;;;13.90;99.90;;;;;;5115556;27;20039;-84
2022/03/18 11:33:37;;;;;;;19.85;6.40;;;13.90;99.90;;;;;;5121978;27;20097;-83
2022/03/18 11:36:11;;;;;;;17.40;5.38;;;13.90;99.90;;;;;;5088703;27;20046;-83
2022/03/18 11:38:59;;;;;;;20.63;5.43;;;14.00;99.90;;;;;;5099560;27;20043;-83
2022/03/18 11:41:51;;;;;;;20.55;5.45;;;14.00;99.90;;;;;;5117778;27;20047;-83
2022/03/18 11:44:35;;;;;;;19.25;5.18;;;14.00;99.90;;;;;;5137233;27;20130;-83
2022/03/18 11:47:34;;;;;;;20.20;5.63;;;14.20;99.90;;;;;;5124822;27;20040;-84
2022/03/18 11:50:02;;;;;;;21.23;5.45;;;14.20;99.90;;;;;;5071001;27;20133;-83
2022/03/18 11:52:28;;;;;;;14.80;4.57;;;14.20;99.90;;;;;;5125815;27;20089;-84
2022/03/18 11:55:10;;;;;;;24.23;6.13;;;14.30;99.90;;;;;;5134015;27;20046;-84
2022/03/18 11:57:45;;;;;;;19.20;5.63;;;14.50;99.90;;;;;;5111380;27;20055;-83
2022/03/18 12:00:32;;;;;;;17.40;4.70;;;14.50;99.90;;;;;;5131379;27;20039;-83
2022/03/18 12:03:00;;;;;;;18.42;4.95;;;14.50;99.90;;;;;;5138551;27;20043;-84
2022/03/18 12:05:31;;;;;;;18.45;5.20;;;14.60;99.90;;;;;;5127111;27;20077;-84
2022/03/18 12:07:59;;;;;;;20.83;5.10;;;14.70;99.90;;;;;;5096376;27;20039;-84
2022/03/18 12:10:33;;;;;;;20.77;4.60;;;14.70;99.90;;;;;;5094235;27;20096;-84
2022/03/18 12:13:02;;;;;;;15.38;3.83;;;14.70;99.90;;;;;;5089511;27;20039;-83
2022/03/18 12:15:29;;;;;;;21.05;4.63;;;14.60;99.90;;;;;;5119294;27;20047;-84
2022/03/18 12:17:57;;;;;;;21.42;4.32;;;14.50;99.90;;;;;;5119022;27;20090;-82
2022/03/18 12:20:30;;;;;;;18.65;4.90;;;14.50;99.90;;;;;;5129898;27;20050;-84
2022/03/18 12:22:57;;;;;;;18.88;4.57;;;14.50;99.90;;;;;;5102858;27;20226;-85
2022/03/18 12:25:22;;;;;;;14.15;4.00;;;14.50;99.90;;;;;;5138527;27;20042;-85
2022/03/18 12:27:49;;;;;;;18.80;4.15;;;14.50;99.90;;;;;;5100256;27;20035;-81
2022/03/18 12:30:17;;;;;;;21.15;5.15;;;14.60;99.90;;;;;;5117238;27;20436;-86
2022/03/18 12:32:53;;;;;;;20.30;5.13;;;14.70;99.90;;;;;;5124022;27;20114;-85
2022/03/18 12:35:26;;;;;;;19.08;4.50;;;14.80;99.90;;;;;;5116677;27;20047;-84
2022/03/18 12:38:06;;;;;;;20.48;5.18;;;14.80;99.90;;;;;;5134617;27;20015;-85
2022/03/18 12:40:32;;;;;;;18.13;4.80;;;14.90;99.90;;;;;;5158054;27;20042;-86
2022/03/18 12:43:01;;;;;;;16.85;4.10;;;14.90;99.90;;;;;;5143086;27;20027;-86
2022/03/18 12:45:31;;;;;;;22.70;5.22;;;14.90;99.90;;;;;;5111776;27;20035;-85
2022/03/18 12:47:59;;;;;;;18.75;4.30;;;15.10;99.90;;;;;;5112872;27;20058;-84
2022/03/18 12:50:49;;;;;;;23.45;5.43;;;15.00;99.90;;;;;;5136949;27;20530;-85
2022/03/18 12:53:20;;;;;;;17.45;5.57;;;14.90;99.90;;;;;;5101827;27;20075;-83
2022/03/18 12:55:50;;;;;;;17.00;4.40;;;14.90;99.90;;;;;;5122939;27;20073;-84
2022/03/18 12:58:17;;;;;;;19.73;4.85;;;14.70;99.90;;;;;;5136139;27;20118;-85
2022/03/18 13:00:50;;;;;;;18.23;4.80;;;14.50;99.90;;;;;;5130791;27;20058;-85
2022/03/18 13:03:19;;;;;;;21.15;5.07;;;14.50;99.90;;;;;;5122487;27;20463;-84